Flugplatz - Wetter - Augsburg

[Quelle: ADDS]
METAR
EDMA 041520Z 03005KT CAVOK 04/M01 Q1035 =
EDMA 041400Z 0415/0424 01005KT 9999 SCT020 BKN045 BECMG 0416/0418 VRB02KT
TAF
EDMA 041400Z 0415/0424 01005KT 9999 SCT020 BKN045 BECMG 0416/0418 VRB02KT =
SR / SS: 06:42 / 16:21 UTC (Augsburg 2023-02-04)

Flugplatz - Wetter - Laupheim

[Quelle: ADDS]
METAR
ETHL 041420Z 01003KT 9999 FEW020 BKN045 05/M00 Q1034 BLU =
TAF
SR / SS: 06:45 / 16:25 UTC (Laupheim 2023-02-04)

Flugplatz - Wetter - Memmingen

[Quelle: ADDS]
METAR
EDJA 041520Z 36004KT 9999 FEW023 BKN038 BKN045 03/00 Q1034 =
EDJA 041400Z 0415/0424 VRB03KT 9999 SCT025 BKN045
TAF
EDJA 041400Z 0415/0424 VRB03KT 9999 SCT025 BKN045 =
SR / SS: 06:42 / 16:24 UTC (Memmingen 2023-02-04)

Flugplatz - Wetter - Neuburg/Donau

[Quelle: ADDS]
METAR
ETSN 041420Z 36007KT 9999 BKN040 04/M02 Q1035 BLU =
ETSN 041404Z 0415/0424 32005KT 9999 NSW SCT040 BKN200 BY ETGL
TAF
ETSN 041404Z 0415/0424 32005KT 9999 NSW SCT040 BKN200 BY ETGL =
SR / SS: 06:40 / 16:18 UTC (Neuburg 2023-02-04)

Flugplatz - Wetter - Stuttgart

[Quelle: ADDS]
METAR
EDDS 041520Z AUTO 35005KT 9999 FEW044 05/01 Q1035 NOSIG =
EDDS 041100Z 0412/0512 35006KT 9999 BKN030 BECMG 0420/0422 VRB03KT TEMPO 0422/0508 1200 BCFG BKN002 TEMPO 0510/0512 4000 -RASN BKN010
TAF
EDDS 041100Z 0412/0512 35006KT 9999 BKN030 BECMG 0420/0422 VRB03KT TEMPO 0422/0508 1200 BCFG BKN002 TEMPO 0510/0512 4000 -RASN BKN010 =
SR / SS: 06:48 / 16:26 UTC (Stuttgart 2023-02-04)

Flugplatz - Wetter - Niederstetten

[Quelle: ADDS]
METAR
ETHN 041420Z 01003KT 9999 SCT022 BKN035 04/M02 Q1035 BLU =
TAF
SR / SS: 06:48 / 16:22 UTC (Niederstetten 2023-02-04)